Time;durP1;ratioP1;P1;durP2;ratioP2;P2;SDS_P1;SDS_P2;PMS_P1;PMS_P2;Temp;Humidity;BMP_temperature;BMP_pressure;BME280_temperature;BME280_humidity;BME280_pressure;Samples;Min_cycle;Max_cycle;Signal;HPM_P1;HPM_P2
2022/06/11 00:00:35;;;;;;;16.95;13.27;;;;;;;18.67;76.87;94086.88;4160198;28;20575;-52
2022/06/11 00:02:36;;;;;;;17.23;12.82;;;;;;;18.72;76.70;94082.53;4171635;28;20045;-48
2022/06/11 00:04:41;;;;;;;14.30;12.77;;;;;;;18.78;76.46;94081.66;4173569;28;20506;-51
2022/06/11 00:06:47;;;;;;;12.98;11.57;;;;;;;18.80;75.92;94076.94;4158816;28;20530;-52
2022/06/11 00:08:49;;;;;;;15.68;11.65;;;;;;;18.81;75.65;94075.09;4159836;28;20053;-54
2022/06/11 00:10:52;;;;;;;13.02;10.57;;;;;;;18.85;75.32;94083.41;4170894;28;20053;-52
2022/06/11 00:12:53;;;;;;;14.98;11.85;;;;;;;18.87;75.36;94079.50;4160927;28;20143;-51
2022/06/11 00:14:55;;;;;;;12.88;11.02;;;;;;;18.90;74.87;94086.19;4162231;28;20099;-51
2022/06/11 00:16:58;;;;;;;14.73;11.70;;;;;;;18.93;75.29;94083.09;4175242;28;20053;-54
2022/06/11 00:19:02;;;;;;;12.60;11.17;;;;;;;18.94;75.10;94082.88;4174347;28;20493;-52
2022/06/11 00:21:04;;;;;;;12.45;10.70;;;;;;;18.94;74.83;94079.41;4158784;28;20340;-53
2022/06/11 00:23:06;;;;;;;11.75;10.55;;;;;;;18.95;75.14;94081.00;4159506;28;20425;-53
2022/06/11 00:25:09;;;;;;;11.32;10.13;;;;;;;18.97;74.88;94074.47;4164449;28;20103;-54
2022/06/11 00:27:12;;;;;;;11.50;10.13;;;;;;;18.99;75.25;94080.34;4172894;28;20189;-52
2022/06/11 00:29:15;;;;;;;10.83;9.73;;;;;;;19.02;75.21;94079.91;4166820;28;20533;-52
2022/06/11 00:31:17;;;;;;;13.73;11.68;;;;;;;19.05;74.86;94075.16;4170101;28;20766;-52
2022/06/11 00:33:20;;;;;;;11.90;10.63;;;;;;;19.03;75.01;94072.72;4159758;28;20136;-54
2022/06/11 00:35:23;;;;;;;11.70;10.10;;;;;;;18.99;75.65;94077.72;4162940;28;20041;-51
2022/06/11 00:37:25;;;;;;;13.07;11.25;;;;;;;19.01;75.98;94077.47;4175248;28;20045;-50
2022/06/11 00:39:30;;;;;;;12.73;10.98;;;;;;;19.06;75.79;94080.25;4158963;28;20119;-52
2022/06/11 00:41:35;;;;;;;13.40;11.70;;;;;;;19.11;76.02;94085.69;4160688;28;20228;-50
2022/06/11 00:43:39;;;;;;;17.13;12.55;;;;;;;19.15;76.41;94083.41;4159157;28;20092;-51
2022/06/11 00:45:41;;;;;;;14.95;11.70;;;;;;;19.16;76.40;94087.66;4159066;28;20052;-52
2022/06/11 00:47:47;;;;;;;14.32;11.15;;;;;;;19.19;76.40;94081.91;4175733;28;20135;-54
2022/06/11 00:49:52;;;;;;;15.27;11.48;;;;;;;19.19;76.00;94085.38;4174780;28;20512;-56
2022/06/11 00:52:10;;;;;;;12.85;11.45;;;;;;;19.14;75.79;94082.56;4156860;28;20058;-51
2022/06/11 00:54:16;;;;;;;13.63;12.05;;;;;;;19.04;75.80;94077.03;4165973;28;20052;-55
2022/06/11 00:56:28;;;;;;;15.02;12.25;;;;;;;19.01;76.44;94085.41;4163626;28;20065;-54
2022/06/11 00:58:37;;;;;;;15.95;13.18;;;;;;;19.03;76.90;94078.03;4171511;28;20056;-52
2022/06/11 01:00:45;;;;;;;16.55;14.02;;;;;;;19.05;77.18;94080.47;4172325;28;20610;-51
2022/06/11 01:02:48;;;;;;;15.50;13.63;;;;;;;19.08;77.14;94075.53;4175385;28;20209;-50
2022/06/11 01:05:01;;;;;;;17.38;13.95;;;;;;;19.08;77.03;94078.19;4162292;28;20056;-51
2022/06/11 01:07:30;;;;;;;17.73;12.90;;;;;;;19.06;76.85;94076.78;4174922;28;20049;-50
2022/06/11 01:09:55;;;;;;;14.00;12.25;;;;;;;19.05;76.88;94077.81;4162144;28;20045;-51
2022/06/11 01:12:29;;;;;;;15.77;12.52;;;;;;;19.00;77.19;94081.16;4174904;28;20060;-53
2022/06/11 01:14:37;;;;;;;14.02;12.32;;;;;;;19.01;77.25;94080.94;4166786;28;20048;-54
2022/06/11 01:17:04;;;;;;;14.57;12.85;;;;;;;19.01;77.35;94074.81;4166783;28;20195;-52
2022/06/11 01:19:34;;;;;;;14.15;11.80;;;;;;;18.97;77.28;94073.63;4164436;28;20159;-51
2022/06/11 01:21:36;;;;;;;15.13;12.65;;;;;;;18.98;77.32;94075.25;4172407;28;20053;-54
2022/06/11 01:24:16;;;;;;;14.65;12.35;;;;;;;18.97;77.57;94074.47;4168658;28;20060;-52
2022/06/11 01:26:17;;;;;;;15.43;12.70;;;;;;;18.97;77.11;94074.47;4169169;28;20050;-48
2022/06/11 01:28:26;;;;;;;18.98;13.80;;;;;;;18.81;77.16;94073.25;4167432;28;20057;-52
2022/06/11 01:30:43;;;;;;;15.30;12.88;;;;;;;18.62;78.00;94077.75;4172318;28;20056;-54
2022/06/11 01:32:57;;;;;;;16.55;13.88;;;;;;;18.30;79.29;94085.06;4160313;28;20041;-50
2022/06/11 01:35:21;;;;;;;19.40;14.45;;;;;;;18.14;80.52;94091.78;4176132;28;20099;-48
2022/06/11 01:37:29;;;;;;;16.03;13.83;;;;;;;18.10;80.86;94081.84;4178169;28;20049;-56
2022/06/11 01:39:36;;;;;;;18.60;13.80;;;;;;;18.11;81.10;94080.78;4165147;28;20053;-51
2022/06/11 01:41:48;;;;;;;17.02;13.45;;;;;;;18.19;81.28;94088.47;4169552;28;20057;-54
2022/06/11 01:43:54;;;;;;;16.13;13.10;;;;;;;18.25;81.15;94082.28;4170498;28;20572;-52
2022/06/11 01:45:56;;;;;;;16.67;13.80;;;;;;;18.33;80.87;94084.63;4170889;28;20037;-54
2022/06/11 01:47:59;;;;;;;18.73;14.77;;;;;;;18.43;80.57;94084.09;4176968;28;20193;-52
2022/06/11 01:50:00;;;;;;;18.17;13.95;;;;;;;18.52;80.28;94088.09;4170995;28;20670;-51
2022/06/11 01:52:21;;;;;;;18.17;13.55;;;;;;;18.58;79.96;94083.72;4160536;28;20524;-52
2022/06/11 01:55:08;;;;;;;13.70;11.20;;;;;;;18.61;79.36;94088.59;4174961;28;20053;-53
2022/06/11 01:57:36;;;;;;;17.88;11.70;;;;;;;18.65;79.15;94087.13;4166307;28;20049;-50
2022/06/11 01:59:54;;;;;;;14.65;12.23;;;;;;;18.71;78.95;94091.50;4172849;28;20057;-53
2022/06/11 02:02:15;;;;;;;13.32;11.10;;;;;;;18.74;78.61;94087.63;4165878;28;20445;-55
2022/06/11 02:04:33;;;;;;;13.50;11.15;;;;;;;18.73;78.72;94093.94;4172355;28;20049;-51
2022/06/11 02:06:44;;;;;;;13.80;11.13;;;;;;;18.75;78.56;94094.53;4174788;28;20056;-50
2022/06/11 02:09:11;;;;;;;12.98;10.90;;;;;;;18.78;78.40;94084.31;4168448;28;20411;-53
2022/06/11 02:11:38;;;;;;;12.38;10.32;;;;;;;18.83;78.04;94087.09;4162333;28;20402;-53
2022/06/11 02:13:55;;;;;;;14.77;10.82;;;;;;;18.85;77.99;94080.75;4167554;28;20056;-55
2022/06/11 02:16:02;;;;;;;14.07;11.18;;;;;;;18.86;77.88;94080.53;4168201;28;20045;-52
2022/06/11 02:18:08;;;;;;;12.95;10.30;;;;;;;18.87;77.84;94086.66;4176280;28;20071;-54
2022/06/11 02:20:14;;;;;;;12.40;10.25;;;;;;;18.87;77.81;94081.34;4162538;28;20057;-52
2022/06/11 02:22:20;;;;;;;12.73;10.30;;;;;;;18.86;77.61;94085.81;4164053;28;20466;-52
2022/06/11 02:24:27;;;;;;;13.02;10.68;;;;;;;18.85;77.62;94083.41;4161604;28;20057;-51
2022/06/11 02:26:33;;;;;;;13.00;10.60;;;;;;;18.85;77.71;94086.88;4165025;28;20576;-50
2022/06/11 02:28:38;;;;;;;12.60;9.70;;;;;;;18.83;77.60;94088.94;4163215;28;20098;-53
2022/06/11 02:30:43;;;;;;;12.07;10.40;;;;;;;18.82;77.86;94088.13;4168796;28;20091;-53
2022/06/11 02:32:45;;;;;;;12.88;10.13;;;;;;;18.86;77.59;94085.81;4161120;28;20049;-52
2022/06/11 02:34:51;;;;;;;12.95;10.25;;;;;;;18.86;77.76;94087.69;4168953;28;20048;-52
2022/06/11 02:37:04;;;;;;;12.30;9.98;;;;;;;18.87;77.57;94098.06;4169974;28;20061;-49
2022/06/11 02:39:06;;;;;;;10.73;9.35;;;;;;;18.89;77.40;94092.56;4160949;28;20165;-49
2022/06/11 02:41:14;;;;;;;12.90;8.80;;;;;;;18.89;77.05;94095.22;4174759;28;20110;-53
2022/06/11 02:43:16;;;;;;;12.30;9.27;;;;;;;18.86;76.78;94088.47;4162293;28;20087;-53
2022/06/11 02:45:18;;;;;;;12.65;9.02;;;;;;;18.78;76.37;94086.16;4174541;28;20099;-53
2022/06/11 02:47:21;;;;;;;9.95;8.48;;;;;;;18.69;76.67;94093.59;4173353;28;20053;-54
2022/06/11 02:49:26;;;;;;;10.27;8.37;;;;;;;18.59;76.71;94088.81;4160210;28;20077;-52
2022/06/11 02:51:29;;;;;;;10.32;8.57;;;;;;;18.54;77.31;94087.84;4169295;28;20128;-50
2022/06/11 02:53:30;;;;;;;9.80;8.50;;;;;;;18.53;77.56;94097.66;4169177;28;20041;-53
2022/06/11 02:55:33;;;;;;;10.43;8.60;;;;;;;18.54;77.46;94093.16;4165103;28;20049;-51
2022/06/11 02:57:35;;;;;;;9.85;8.85;;;;;;;18.52;77.62;94103.16;4172192;28;20041;-51
2022/06/11 02:59:37;;;;;;;10.80;9.45;;;;;;;18.55;77.88;94092.94;4175091;28;20105;-54
2022/06/11 03:01:40;;;;;;;11.05;9.13;;;;;;;18.59;78.01;94101.28;4167495;28;20536;-51
2022/06/11 03:03:42;;;;;;;11.85;8.98;;;;;;;18.61;77.59;94096.56;4169416;28;20136;-51
2022/06/11 03:05:44;;;;;;;9.90;8.90;;;;;;;18.61;77.11;94100.00;4159971;28;20069;-53
2022/06/11 03:07:46;;;;;;;9.90;8.57;;;;;;;18.58;77.27;94103.13;4160208;28;20553;-50
2022/06/11 03:09:48;;;;;;;11.93;8.60;;;;;;;18.55;77.29;94103.53;4168555;28;20135;-52
2022/06/11 03:11:50;;;;;;;11.52;8.95;;;;;;;18.56;77.44;94099.03;4163971;28;20053;-54
2022/06/11 03:13:52;;;;;;;11.18;8.52;;;;;;;18.54;77.34;94101.09;4161455;28;20484;-52
2022/06/11 03:15:54;;;;;;;13.07;9.55;;;;;;;18.49;77.22;94104.44;4170965;28;20045;-53
2022/06/11 03:17:57;;;;;;;9.82;8.80;;;;;;;18.42;77.59;94104.50;4160336;28;20049;-53
2022/06/11 03:20:00;;;;;;;11.27;8.82;;;;;;;18.42;77.87;94104.50;4164544;28;20053;-50
2022/06/11 03:22:03;;;;;;;11.75;9.10;;;;;;;18.45;77.86;94113.06;4173214;28;20048;-53
2022/06/11 03:24:05;;;;;;;10.95;8.23;;;;;;;18.44;77.81;94109.59;4165340;28;20122;-54
2022/06/11 03:26:07;;;;;;;11.65;9.32;;;;;;;18.40;77.68;94113.72;4164037;28;20051;-50
2022/06/11 03:28:11;;;;;;;11.73;8.73;;;;;;;18.35;77.94;94122.34;4171374;28;20559;-49
2022/06/11 03:30:16;;;;;;;11.40;9.23;;;;;;;18.36;78.00;94105.41;4164876;28;20110;-53
2022/06/11 03:32:18;;;;;;;10.05;8.90;;;;;;;18.41;78.10;94110.88;4160045;28;20072;-52
2022/06/11 03:34:21;;;;;;;10.50;8.50;;;;;;;18.39;78.22;94123.53;4173687;28;20060;-50
2022/06/11 03:36:23;;;;;;;11.15;8.30;;;;;;;18.41;77.90;94124.13;4163965;28;20041;-54
2022/06/11 03:38:24;;;;;;;10.77;9.15;;;;;;;18.22;78.16;94119.84;4163592;28;20107;-51
2022/06/11 03:40:27;;;;;;;11.70;8.60;;;;;;;18.11;78.69;94113.44;4168006;28;20114;-51
2022/06/11 03:42:29;;;;;;;11.55;9.10;;;;;;;18.14;79.23;94112.19;4159540;28;20186;-55
2022/06/11 03:44:30;;;;;;;10.48;8.68;;;;;;;18.17;79.19;94109.06;4159618;28;20493;-49
2022/06/11 03:46:32;;;;;;;12.00;9.13;;;;;;;18.20;79.00;94116.59;4158894;28;20115;-50
2022/06/11 03:48:36;;;;;;;9.32;7.97;;;;;;;18.25;79.19;94113.28;4168239;28;20044;-54
2022/06/11 03:50:39;;;;;;;10.75;8.27;;;;;;;18.34;79.25;94115.41;4164302;28;20057;-54
2022/06/11 03:52:41;;;;;;;10.52;8.60;;;;;;;18.38;78.18;94119.25;4162793;28;20057;-52
2022/06/11 03:54:42;;;;;;;11.13;8.10;;;;;;;18.23;77.93;94110.84;4159063;28;20046;-53
2022/06/11 03:56:46;;;;;;;10.32;8.68;;;;;;;18.09;78.72;94120.78;4159910;28;20107;-49
2022/06/11 03:58:48;;;;;;;;;;;;;;;17.94;79.58;94117.66;4170501;28;20055;-51
2022/06/11 04:03:12;;;;;;;9.50;8.02;;;;;;;17.73;80.63;94126.81;4161530;28;20077;-54
2022/06/11 04:05:15;;;;;;;10.55;8.70;;;;;;;17.67;80.90;94125.03;4159629;28;20059;-53
2022/06/11 04:07:16;;;;;;;9.93;8.45;;;;;;;17.63;81.65;94122.00;4159707;28;20060;-52
2022/06/11 04:09:33;;;;;;;10.35;8.88;;;;;;;17.68;81.97;94123.97;4172333;28;20073;-51
2022/06/11 04:11:35;;;;;;;10.77;8.90;;;;;;;17.74;81.23;94125.75;4174226;28;20104;-55
2022/06/11 04:13:39;;;;;;;11.65;8.88;;;;;;;17.68;81.42;94127.47;4169856;28;20041;-52
2022/06/11 04:15:42;;;;;;;11.05;9.00;;;;;;;17.54;82.51;94123.28;4167348;28;20110;-54
2022/06/11 04:17:44;;;;;;;12.05;9.18;;;;;;;17.31;83.39;94126.50;4174308;28;20111;-52
2022/06/11 04:19:48;;;;;;;12.50;9.57;;;;;;;17.14;84.57;94132.34;4160874;28;20061;-51
2022/06/11 04:21:51;;;;;;;11.90;8.90;;;;;;;17.19;85.21;94129.03;4163070;28;20323;-53
2022/06/11 04:23:55;;;;;;;11.65;9.25;;;;;;;17.19;84.97;94134.34;4169701;28;20057;-49
2022/06/11 04:25:59;;;;;;;11.35;9.25;;;;;;;17.26;84.90;94126.34;4158662;28;20049;-53
2022/06/11 04:28:00;;;;;;;12.43;9.45;;;;;;;17.19;84.13;94127.19;4171649;28;20122;-49
2022/06/11 04:30:03;;;;;;;13.20;10.02;;;;;;;17.14;84.13;94128.84;4164755;28;20118;-52
2022/06/11 04:32:07;;;;;;;12.52;9.13;;;;;;;17.14;83.82;94132.34;4162888;28;21104;-53
2022/06/11 04:34:10;;;;;;;10.27;8.25;;;;;;;17.16;84.25;94132.09;4169513;28;20415;-51
2022/06/11 04:36:11;;;;;;;10.57;9.17;;;;;;;17.24;84.12;94139.78;4168728;28;20202;-51
2022/06/11 04:38:13;;;;;;;10.05;8.40;;;;;;;17.36;83.85;94132.00;4174368;28;20102;-50
2022/06/11 04:40:17;;;;;;;10.90;7.97;;;;;;;17.50;83.15;94138.00;4179955;28;20052;-51
2022/06/11 04:42:20;;;;;;;8.32;6.30;;;;;;;17.43;80.59;94138.03;4171706;28;20057;-47
2022/06/11 04:44:22;;;;;;;9.43;6.60;;;;;;;17.44;81.58;94138.84;4164610;28;20147;-53
2022/06/11 04:46:25;;;;;;;8.88;7.18;;;;;;;17.53;82.05;94143.69;4162002;28;20238;-52
2022/06/11 04:48:27;;;;;;;7.60;6.57;;;;;;;17.63;81.21;94145.03;4164738;28;20048;-52
2022/06/11 04:50:31;;;;;;;9.38;6.35;;;;;;;17.74;81.21;94144.31;4165771;28;20049;-51
2022/06/11 04:52:33;;;;;;;7.22;5.90;;;;;;;17.80;80.61;94152.19;4164658;28;20474;-54
2022/06/11 04:54:35;;;;;;;8.65;5.40;;;;;;;17.87;79.45;94149.53;4166091;28;20053;-52
2022/06/11 04:56:37;;;;;;;7.63;5.60;;;;;;;17.89;79.07;94154.63;4164577;28;20100;-52
2022/06/11 04:58:38;;;;;;;7.53;6.10;;;;;;;17.87;79.04;94161.97;4177378;28;20162;-52
2022/06/11 05:00:40;;;;;;;9.13;6.38;;;;;;;17.85;79.14;94162.16;4179315;28;20053;-48
2022/06/11 05:02:42;;;;;;;6.60;5.82;;;;;;;17.88;79.42;94163.59;4178908;28;20049;-51
2022/06/11 05:04:44;;;;;;;7.90;6.13;;;;;;;17.98;79.88;94153.28;4178743;28;20064;-54
2022/06/11 05:06:47;;;;;;;7.75;5.68;;;;;;;18.06;79.93;94162.81;4167112;28;20049;-52
2022/06/11 05:08:48;;;;;;;6.90;6.00;;;;;;;18.16;79.75;94166.59;4178095;28;20057;-51
2022/06/11 05:10:50;;;;;;;9.02;6.25;;;;;;;18.25;79.26;94167.13;4178542;28;20504;-52
2022/06/11 05:12:52;;;;;;;10.20;6.30;;;;;;;18.36;79.52;94171.69;4173359;28;20063;-51
2022/06/11 05:14:54;;;;;;;6.32;5.38;;;;;;;18.44;78.93;94177.75;4171879;28;20053;-49
2022/06/11 05:16:56;;;;;;;7.18;4.97;;;;;;;18.46;77.74;94173.84;4165403;28;20166;-52
2022/06/11 05:18:58;;;;;;;9.07;5.05;;;;;;;18.50;77.85;94175.03;4165707;28;20417;-53
2022/06/11 05:21:01;;;;;;;8.05;4.70;;;;;;;18.56;77.61;94171.50;4163561;28;20045;-51
2022/06/11 05:23:03;;;;;;;8.02;4.65;;;;;;;18.61;77.15;94176.94;4165718;28;20049;-53
2022/06/11 05:25:06;;;;;;;7.40;5.07;;;;;;;18.67;77.50;94177.91;4175789;28;20174;-54
2022/06/11 05:27:19;;;;;;;5.53;4.25;;;;;;;18.75;76.71;94185.53;4179950;28;20594;-50
2022/06/11 05:29:33;;;;;;;5.65;4.22;;;;;;;18.79;75.62;94184.09;4163758;28;20055;-51
2022/06/11 05:31:35;;;;;;;5.50;4.20;;;;;;;18.81;74.79;94190.00;4163165;28;20083;-53
2022/06/11 05:33:37;;;;;;;5.70;4.20;;;;;;;18.66;74.28;94189.53;4174588;28;20270;-51
2022/06/11 05:35:40;;;;;;;6.25;4.30;;;;;;;18.59;75.19;94194.13;4167311;28;20053;-52
2022/06/11 05:37:41;;;;;;;5.35;3.85;;;;;;;18.52;75.11;94193.34;4177234;28;20134;-52
2022/06/11 05:39:44;;;;;;;7.30;4.15;;;;;;;18.44;75.32;94191.81;4179881;28;20087;-50
2022/06/11 05:41:46;;;;;;;7.60;5.50;;;;;;;18.44;75.58;94191.81;4169305;28;20551;-51
2022/06/11 05:43:47;;;;;;;8.27;6.57;;;;;;;18.38;76.00;94193.50;4163082;28;20474;-52
2022/06/11 05:45:57;;;;;;;6.85;5.13;;;;;;;18.18;76.05;94199.00;4173367;28;20044;-52
2022/06/11 05:47:59;;;;;;;6.25;4.85;;;;;;;18.10;76.25;94201.91;4177669;28;20053;-51
2022/06/11 05:50:04;;;;;;;7.97;5.43;;;;;;;18.01;77.18;94204.03;4174444;28;20048;-54
2022/06/11 05:52:11;;;;;;;6.90;5.47;;;;;;;18.04;77.45;94208.09;4166352;28;20092;-50
2022/06/11 05:54:20;;;;;;;6.35;5.18;;;;;;;17.96;77.06;94203.88;4176427;28;20056;-50
2022/06/11 05:56:22;;;;;;;6.50;5.60;;;;;;;18.09;78.04;94205.63;4164181;28;20628;-52
2022/06/11 05:58:31;;;;;;;8.15;5.55;;;;;;;18.31;78.23;94200.72;4160962;28;20107;-49
2022/06/11 06:00:35;;;;;;;7.32;5.85;;;;;;;18.51;78.23;94207.66;4164776;28;20051;-48
2022/06/11 06:02:38;;;;;;;7.30;5.65;;;;;;;18.70;77.72;94211.13;4167862;28;20488;-50
2022/06/11 06:04:40;;;;;;;5.80;4.70;;;;;;;18.80;75.96;94214.94;4173102;28;20079;-52
2022/06/11 06:06:41;;;;;;;7.53;5.05;;;;;;;18.90;75.46;94216.25;4162972;28;20130;-53
2022/06/11 06:08:44;;;;;;;7.50;5.15;;;;;;;18.99;75.81;94214.91;4178347;28;20497;-50
2022/06/11 06:10:47;;;;;;;8.23;5.72;;;;;;;19.08;75.79;94208.28;4177468;28;20425;-51
2022/06/11 06:12:49;;;;;;;8.00;5.20;;;;;;;19.14;75.57;94211.84;4168336;28;20554;-53
2022/06/11 06:14:51;;;;;;;5.57;4.90;;;;;;;19.16;75.15;94213.25;4171267;28;20053;-52
2022/06/11 06:16:53;;;;;;;6.13;4.90;;;;;;;19.19;74.85;94212.00;4164710;28;20049;-55
2022/06/11 06:18:56;;;;;;;5.68;5.05;;;;;;;19.22;74.40;94204.38;4162282;28;20103;-52
2022/06/11 06:20:57;;;;;;;5.40;4.53;;;;;;;19.26;74.10;94214.59;4161402;28;20099;-51
2022/06/11 06:22:59;;;;;;;5.22;4.10;;;;;;;19.30;73.58;94221.88;4167566;28;20286;-52
2022/06/11 06:25:01;;;;;;;5.88;4.40;;;;;;;19.33;73.78;94220.59;4168133;28;20069;-52
2022/06/11 06:27:04;;;;;;;5.47;4.50;;;;;;;19.34;73.86;94219.59;4172950;28;20506;-54
2022/06/11 06:29:05;;;;;;;5.07;4.32;;;;;;;19.32;73.94;94219.81;4176256;28;20057;-54
2022/06/11 06:31:09;;;;;;;8.38;5.20;;;;;;;19.39;73.87;94225.03;4166818;28;20487;-53
2022/06/11 06:33:10;;;;;;;5.82;5.07;;;;;;;19.41;73.98;94230.91;4167342;28;20089;-52
2022/06/11 06:35:13;;;;;;;6.82;5.35;;;;;;;19.41;74.25;94230.91;4168046;28;20423;-52
2022/06/11 06:37:15;;;;;;;5.68;4.45;;;;;;;19.43;74.31;94229.66;4172516;28;20045;-52
2022/06/11 06:39:16;;;;;;;7.03;5.70;;;;;;;19.46;74.40;94230.25;4162610;28;20134;-49
2022/06/11 06:41:19;;;;;;;6.47;5.13;;;;;;;19.45;74.25;94226.78;4170882;28;20049;-55
2022/06/11 06:43:21;;;;;;;6.05;5.05;;;;;;;19.48;74.08;94228.97;4169316;28;20061;-56
2022/06/11 06:45:22;;;;;;;5.65;4.85;;;;;;;19.48;73.68;94230.81;4163974;28;20179;-51
2022/06/11 06:47:24;;;;;;;6.75;5.50;;;;;;;19.47;73.80;94231.84;4171677;28;20460;-50
2022/06/11 06:49:26;;;;;;;7.93;5.32;;;;;;;19.46;73.97;94232.91;4166258;28;20053;-53
2022/06/11 06:51:27;;;;;;;7.10;4.72;;;;;;;19.47;73.86;94232.69;4170629;28;20435;-50
2022/06/11 06:53:30;;;;;;;6.88;4.45;;;;;;;19.48;73.55;94230.81;4163399;28;20046;-52
2022/06/11 06:55:32;;;;;;;5.95;4.57;;;;;;;19.52;73.24;94229.34;4176646;28;20110;-53
2022/06/11 06:57:33;;;;;;;6.85;4.35;;;;;;;19.52;73.25;94235.47;4176261;28;20098;-52
2022/06/11 06:59:35;;;;;;;6.85;4.85;;;;;;;19.58;73.16;94234.56;4161895;28;20049;-52
2022/06/11 07:01:37;;;;;;;6.15;5.00;;;;;;;19.65;72.95;94234.47;4170763;28;20053;-53
2022/06/11 07:03:41;;;;;;;7.85;5.18;;;;;;;19.69;72.69;94230.31;4167720;28;20084;-54
2022/06/11 07:05:45;;;;;;;5.35;4.55;;;;;;;19.75;72.82;94229.44;4166756;28;20080;-49
2022/06/11 07:07:48;;;;;;;10.13;5.05;;;;;;;19.84;72.81;94224.63;4168338;28;20048;-52
2022/06/11 07:09:54;;;;;;;6.20;5.07;;;;;;;19.95;72.73;94229.13;4162825;28;20782;-49
2022/06/11 07:11:56;;;;;;;5.43;4.82;;;;;;;20.05;71.95;94229.41;4176169;28;20494;-51
2022/06/11 07:13:58;;;;;;;5.68;4.82;;;;;;;20.01;71.31;94230.88;4176488;28;20053;-51
2022/06/11 07:16:00;;;;;;;8.48;5.75;;;;;;;19.99;71.86;94232.97;4175059;28;20104;-51
2022/06/11 07:18:13;;;;;;;7.50;5.28;;;;;;;20.01;71.20;94236.19;4176212;28;20053;-49
2022/06/11 07:20:21;;;;;;;8.60;5.35;;;;;;;20.08;71.40;94238.75;4167803;28;20061;-51
2022/06/11 07:22:26;;;;;;;7.28;5.18;;;;;;;20.02;71.71;94240.47;4166595;28;20068;-49
2022/06/11 07:24:31;;;;;;;7.80;4.90;;;;;;;20.04;72.09;94241.06;4164920;28;20057;-52
2022/06/11 07:26:39;;;;;;;6.25;4.90;;;;;;;20.02;71.90;94243.13;4160557;28;20057;-51
2022/06/11 07:28:48;;;;;;;6.43;4.82;;;;;;;20.13;71.69;94251.34;4165628;28;20703;-50
2022/06/11 07:30:50;;;;;;;7.70;4.80;;;;;;;20.18;71.82;94254.16;4179710;28;20106;-50
2022/06/11 07:32:56;;;;;;;7.97;4.85;;;;;;;20.25;72.02;94253.00;4163556;28;20049;-53
2022/06/11 07:35:00;;;;;;;7.22;4.90;;;;;;;20.33;71.92;94259.03;4172339;28;20057;-50
2022/06/11 07:37:02;;;;;;;8.32;7.50;;;;;;;20.36;71.62;94258.56;4174681;28;20045;-51
2022/06/11 07:39:03;;;;;;;7.38;5.60;;;;;;;20.39;70.83;94266.06;4176163;28;20061;-51
2022/06/11 07:41:05;;;;;;;5.68;5.07;;;;;;;20.34;70.64;94257.97;4172348;28;20057;-51
2022/06/11 07:43:07;;;;;;;6.90;4.65;;;;;;;20.31;70.11;94263.78;4168892;28;20114;-52
2022/06/11 07:45:10;;;;;;;6.95;4.75;;;;;;;20.19;70.24;94269.88;4164062;28;20069;-50
2022/06/11 07:47:12;;;;;;;7.28;4.55;;;;;;;20.15;70.35;94271.34;4171962;28;20041;-52
2022/06/11 07:49:14;;;;;;;5.72;4.45;;;;;;;20.17;70.71;94269.28;4166115;28;20052;-48
2022/06/11 07:51:19;;;;;;;6.13;4.30;;;;;;;20.10;69.99;94263.28;4163157;28;20674;-50
2022/06/11 07:53:22;;;;;;;6.65;5.07;;;;;;;20.17;70.65;94263.97;4165426;28;20045;-51
2022/06/11 07:55:25;;;;;;;6.95;4.20;;;;;;;20.30;70.54;94268.25;4160934;28;20303;-52
2022/06/11 07:57:27;;;;;;;5.95;4.43;;;;;;;20.43;70.23;94264.56;4167794;28;20045;-51
2022/06/11 07:59:28;;;;;;;6.25;4.32;;;;;;;20.34;68.35;94264.09;4166241;28;20045;-54
2022/06/11 08:01:30;;;;;;;6.85;4.45;;;;;;;20.36;69.80;94259.38;4165338;28;20120;-53
2022/06/11 08:03:32;;;;;;;6.00;4.72;;;;;;;20.53;69.95;94267.47;4171652;28;20139;-54
2022/06/11 08:05:35;;;;;;;6.60;4.45;;;;;;;20.76;69.53;94263.22;4159624;28;20197;-54
2022/06/11 08:07:36;;;;;;;5.32;4.43;;;;;;;20.97;69.32;94256.47;4163448;28;20055;-54
2022/06/11 08:09:38;;;;;;;7.20;4.60;;;;;;;21.16;68.39;94263.25;4168891;28;20046;-53
2022/06/11 08:11:40;;;;;;;5.68;4.28;;;;;;;21.15;66.65;94264.31;4158900;28;20041;-58
2022/06/11 08:13:42;;;;;;;5.70;4.32;;;;;;;21.26;67.33;94263.47;4170338;28;20061;-53
2022/06/11 08:15:46;;;;;;;6.05;3.83;;;;;;;21.22;65.40;94267.66;4173515;28;20134;-53
2022/06/11 08:17:48;;;;;;;6.78;4.85;;;;;;;20.74;66.01;94268.78;4160010;28;20442;-48
2022/06/11 08:19:50;;;;;;;6.75;5.20;;;;;;;20.20;68.52;94268.84;4161400;28;20057;-52
2022/06/11 08:21:53;;;;;;;6.13;4.57;;;;;;;20.08;68.77;94269.84;4159730;28;20667;-50
2022/06/11 08:23:55;;;;;;;7.28;4.28;;;;;;;20.03;68.82;94262.56;4158679;28;20057;-48
2022/06/11 08:25:57;;;;;;;6.97;4.60;;;;;;;20.17;69.13;94271.94;4172484;28;20064;-53
2022/06/11 08:27:59;;;;;;;5.80;4.47;;;;;;;20.45;69.03;94276.59;4157353;28;20053;-52
2022/06/11 08:30:01;;;;;;;5.40;4.50;;;;;;;20.50;66.75;94269.78;4157398;28;20107;-53
2022/06/11 08:32:05;;;;;;;6.55;5.10;;;;;;;20.48;67.39;94270.03;4164244;28;20112;-50
2022/06/11 08:34:06;;;;;;;8.57;4.60;;;;;;;20.72;67.56;94264.75;4158505;28;20542;-52
2022/06/11 08:36:09;;;;;;;5.70;4.72;;;;;;;20.75;66.62;94262.41;4171726;28;20808;-52
2022/06/11 08:38:11;;;;;;;5.95;4.65;;;;;;;20.71;66.72;94263.91;4172655;28;20042;-50
2022/06/11 08:40:27;;;;;;;5.05;4.15;;;;;;;21.01;65.28;94261.09;4175689;28;20118;-50
2022/06/11 08:42:36;;;;;;;4.53;3.80;;;;;;;21.33;66.10;94259.88;4164731;28;20056;-48
2022/06/11 08:44:38;;;;;;;4.93;4.05;;;;;;;21.73;65.69;94254.53;4171538;28;20071;-51
2022/06/11 08:46:44;;;;;;;4.50;4.00;;;;;;;22.03;64.64;94248.13;4162137;28;20094;-50
2022/06/11 08:48:54;;;;;;;5.90;3.80;;;;;;;21.85;62.59;94254.47;4175788;28;20077;-47
2022/06/11 08:51:23;;;;;;;5.63;3.85;;;;;;;21.68;62.70;94246.44;4173942;28;20056;-50
2022/06/11 08:53:25;;;;;;;4.18;3.63;;;;;;;21.42;62.42;94251.31;4175164;28;20045;-50
2022/06/11 08:55:33;;;;;;;4.63;3.92;;;;;;;20.98;62.33;94253.59;4170433;28;20042;-54
2022/06/11 08:57:40;;;;;;;7.28;4.28;;;;;;;20.86;64.34;94250.13;4166608;28;20046;-53
2022/06/11 08:59:54;;;;;;;6.82;4.07;;;;;;;20.97;63.71;94256.47;4155696;28;20049;-51
2022/06/11 09:02:01;;;;;;;23.17;7.85;;;;;;;21.06;63.43;94255.09;4162136;28;20056;-52
2022/06/11 09:04:26;;;;;;;7.50;5.18;;;;;;;20.96;64.48;94252.19;4174706;28;20056;-51
2022/06/11 09:07:02;;;;;;;5.50;4.20;;;;;;;20.79;64.24;94252.91;4161579;28;20059;-49
2022/06/11 09:09:29;;;;;;;6.18;4.22;;;;;;;20.98;64.15;94252.78;4157874;28;20061;-53
2022/06/11 09:11:40;;;;;;;6.30;4.18;;;;;;;21.28;63.68;94248.06;4170225;28;20473;-51
2022/06/11 09:13:44;;;;;;;9.23;5.75;;;;;;;21.17;63.59;94248.91;4173159;28;20107;-51
2022/06/11 09:15:48;;;;;;;7.03;5.72;;;;;;;20.81;64.45;94247.38;4157830;28;20138;-51
2022/06/11 09:17:59;;;;;;;6.40;5.20;;;;;;;20.93;63.86;94242.84;4158353;28;20053;-54
2022/06/11 09:20:19;;;;;;;5.93;4.93;;;;;;;21.05;63.02;94251.59;4160639;28;20474;-53
2022/06/11 09:22:44;;;;;;;7.80;5.50;;;;;;;21.21;62.86;94242.06;4160775;28;20120;-54
2022/06/11 09:25:31;;;;;;;6.25;5.30;;;;;;;21.24;63.79;94246.13;4168289;28;20421;-51
2022/06/11 09:27:44;;;;;;;8.77;4.82;;;;;;;21.40;63.50;94242.72;4165014;28;20044;-49
2022/06/11 09:29:56;;;;;;;7.95;4.88;;;;;;;21.36;61.94;94246.91;4175756;28;20215;-52
2022/06/11 09:32:05;;;;;;;6.50;5.10;;;;;;;21.13;63.35;94244.31;4176617;28;20049;-48
2022/06/11 09:34:20;;;;;;;6.13;4.50;;;;;;;21.25;62.59;94245.88;4168338;28;20589;-52
2022/06/11 09:36:35;;;;;;;5.70;4.85;;;;;;;21.30;62.73;94239.03;4174516;28;20048;-49
2022/06/11 09:38:46;;;;;;;6.65;4.85;;;;;;;21.46;63.28;94244.44;4174404;28;20113;-50
2022/06/11 09:41:09;;;;;;;4.85;4.32;;;;;;;21.36;62.65;94248.72;4166948;28;20058;-52
2022/06/11 09:43:14;;;;;;;6.15;4.25;;;;;;;21.21;60.53;94246.59;4161803;28;20061;-53
2022/06/11 09:45:31;;;;;;;4.68;4.28;;;;;;;20.92;62.10;94251.06;4160255;28;20104;-54
2022/06/11 09:47:39;;;;;;;5.22;3.85;;;;;;;21.34;62.72;94256.97;4160925;28;20049;-52
2022/06/11 09:50:01;;;;;;;5.13;4.38;;;;;;;21.48;62.16;94253.00;4160612;28;20114;-50